Time;durP1;ratioP1;P1;durP2;ratioP2;P2;SDS_P1;SDS_P2;PMS_P1;PMS_P2;Temp;Humidity;BMP_temperature;BMP_pressure;BME280_temperature;BME280_humidity;BME280_pressure;Samples;Min_cycle;Max_cycle;Signal;HPM_P1;HPM_P2
2023/05/08 00:01:00;;;;;;;6.40;3.20;;;14.30;99.90;;;;;;5073439;28;20449;-86
2023/05/08 00:03:26;;;;;;;7.50;3.90;;;14.30;99.90;;;;;;5073068;28;20470;-86
2023/05/08 00:05:55;;;;;;;6.23;3.43;;;14.20;99.90;;;;;;5073240;28;20485;-86
2023/05/08 00:08:23;;;;;;;6.80;3.23;;;14.20;99.90;;;;;;5073354;28;20441;-86
2023/05/08 00:10:50;;;;;;;5.23;3.30;;;14.20;99.90;;;;;;5073357;28;20449;-85
2023/05/08 00:13:17;;;;;;;6.30;3.70;;;14.20;99.90;;;;;;5073198;28;20817;-85
2023/05/08 00:15:44;;;;;;;7.43;3.80;;;14.20;99.90;;;;;;5073356;28;20441;-85
2023/05/08 00:18:10;;;;;;;8.17;4.20;;;14.20;99.90;;;;;;5073242;28;20456;-85
2023/05/08 00:20:37;;;;;;;8.10;4.23;;;14.20;99.90;;;;;;5073172;28;20456;-85
2023/05/08 00:23:04;;;;;;;5.90;3.87;;;14.30;99.90;;;;;;5073126;28;20473;-86
2023/05/08 00:25:32;;;;;;;8.60;4.03;;;14.30;99.90;;;;;;5073229;28;20488;-86
2023/05/08 00:27:59;;;;;;;8.33;4.63;;;14.20;99.90;;;;;;5073080;28;20461;-86
2023/05/08 00:30:26;;;;;;;8.63;4.20;;;14.20;99.90;;;;;;5073169;28;20453;-86
2023/05/08 00:32:53;;;;;;;7.00;3.50;;;14.20;99.90;;;;;;5072767;28;21058;-86
2023/05/08 00:35:20;;;;;;;6.90;4.00;;;14.20;99.90;;;;;;5073042;28;20963;-86
2023/05/08 00:37:47;;;;;;;6.33;3.50;;;14.30;99.90;;;;;;5076618;28;20460;-86
2023/05/08 00:40:13;;;;;;;7.77;3.57;;;14.30;99.90;;;;;;5076633;28;20449;-86
2023/05/08 00:42:42;;;;;;;6.07;3.43;;;14.30;99.90;;;;;;5076699;28;20480;-86
2023/05/08 00:45:09;;;;;;;9.37;3.77;;;14.30;99.90;;;;;;5076694;28;20473;-86
2023/05/08 00:47:36;;;;;;;3.33;2.90;;;14.30;99.90;;;;;;5076719;28;20449;-85
2023/05/08 00:50:04;;;;;;;7.33;3.17;;;14.30;99.90;;;;;;5076497;28;20445;-85
2023/05/08 00:52:33;;;;;;;5.73;3.50;;;14.30;99.90;;;;;;5076673;28;20465;-85
2023/05/08 00:55:01;;;;;;;5.87;2.73;;;14.30;99.90;;;;;;5080101;28;20945;-86
2023/05/08 00:57:29;;;;;;;6.47;2.80;;;14.30;99.90;;;;;;5076440;28;20445;-86
2023/05/08 00:59:58;;;;;;;5.60;2.33;;;14.20;99.90;;;;;;5076243;28;20449;-85
2023/05/08 01:02:25;;;;;;;6.50;3.07;;;14.20;99.90;;;;;;5076007;28;20992;-85
2023/05/08 01:04:53;;;;;;;4.80;3.30;;;14.20;99.90;;;;;;5075935;28;20530;-85
2023/05/08 01:07:20;;;;;;;6.17;2.63;;;14.20;99.90;;;;;;5076407;28;20454;-85
2023/05/08 01:09:47;;;;;;;5.30;3.33;;;14.20;99.90;;;;;;5076289;28;20524;-86
2023/05/08 01:12:20;;;;;;;6.43;2.60;;;14.20;99.90;;;;;;5076108;28;20468;-85
2023/05/08 01:15:00;;;;;;;5.60;3.23;;;14.20;99.90;;;;;;5076195;28;20465;-85
2023/05/08 01:17:38;;;;;;;4.23;2.60;;;14.30;99.90;;;;;;5076183;28;20444;-85
2023/05/08 01:20:22;;;;;;;10.47;3.67;;;14.30;99.90;;;;;;5076113;28;20437;-86
2023/05/08 01:23:29;;;;;;;5.27;2.80;;;14.30;99.90;;;;;;5076044;28;20470;-85
2023/05/08 01:26:09;;;;;;;5.57;2.90;;;14.30;99.90;;;;;;5075893;28;20563;-85
2023/05/08 01:29:09;;;;;;;7.60;2.97;;;14.30;99.90;;;;;;5076036;28;20780;-85
2023/05/08 01:31:51;;;;;;;8.73;3.37;;;14.20;99.90;;;;;;5023064;28;20446;-85
2023/05/08 01:34:24;;;;;;;6.90;3.20;;;14.20;99.90;;;;;;5075888;28;20480;-86
2023/05/08 01:36:54;;;;;;;3.73;2.37;;;14.20;99.90;;;;;;5075859;28;20430;-86
2023/05/08 01:39:27;;;;;;;7.53;3.33;;;14.20;99.90;;;;;;5075785;28;20426;-90
2023/05/08 01:42:00;;;;;;;4.93;3.67;;;14.30;99.90;;;;;;5075758;28;20473;-86
2023/05/08 01:44:33;;;;;;;5.37;3.20;;;14.30;99.90;;;;;;5075503;28;20426;-86
2023/05/08 01:47:06;;;;;;;7.90;2.87;;;14.30;99.90;;;;;;5075466;28;20456;-86
2023/05/08 01:49:39;;;;;;;5.87;3.20;;;14.30;99.90;;;;;;5076448;28;20465;-86
2023/05/08 01:52:10;;;;;;;10.23;4.73;;;14.20;99.90;;;;;;5075544;28;20568;-86
2023/05/08 01:54:42;;;;;;;7.60;3.40;;;14.30;99.90;;;;;;5075272;28;20901;-86
2023/05/08 01:57:12;;;;;;;5.03;3.43;;;14.30;99.90;;;;;;5075209;28;20434;-86
2023/05/08 01:59:41;;;;;;;14.70;5.37;;;14.30;99.90;;;;;;5075208;28;20937;-86
2023/05/08 02:02:10;;;;;;;5.50;3.43;;;14.20;99.90;;;;;;5074969;28;20481;-86
2023/05/08 02:04:39;;;;;;;7.10;3.90;;;14.30;99.90;;;;;;5074871;28;20434;-85
2023/05/08 02:07:07;;;;;;;10.73;4.07;;;14.30;99.90;;;;;;5075206;28;20468;-86
2023/05/08 02:09:34;;;;;;;7.80;4.40;;;14.30;99.90;;;;;;5074928;28;20444;-86
2023/05/08 02:12:02;;;;;;;7.33;4.00;;;14.30;99.90;;;;;;5075031;28;20473;-85
2023/05/08 02:14:30;;;;;;;7.20;4.33;;;14.30;99.90;;;;;;5074841;28;20492;-86
2023/05/08 02:16:59;;;;;;;11.47;5.20;;;14.30;99.90;;;;;;5074981;28;20461;-86
2023/05/08 02:19:28;;;;;;;6.50;3.70;;;14.30;99.90;;;;;;5074930;28;20446;-86
2023/05/08 02:21:58;;;;;;;6.00;3.10;;;14.30;99.90;;;;;;5074853;28;20477;-86
2023/05/08 02:24:26;;;;;;;11.70;5.40;;;14.30;99.90;;;;;;5074880;28;20430;-86
2023/05/08 02:26:54;;;;;;;7.10;3.67;;;14.30;99.90;;;;;;5074673;28;20481;-86
2023/05/08 02:29:22;;;;;;;9.00;4.57;;;14.30;99.90;;;;;;5074759;28;20476;-85
2023/05/08 02:31:50;;;;;;;7.77;4.23;;;14.30;99.90;;;;;;5074664;28;20466;-85
2023/05/08 02:34:18;;;;;;;10.37;4.23;;;14.30;99.90;;;;;;5074677;28;20933;-86
2023/05/08 02:36:45;;;;;;;5.87;3.47;;;14.30;99.90;;;;;;5074521;28;20445;-86
2023/05/08 02:39:15;;;;;;;10.60;3.83;;;14.30;99.90;;;;;;5074783;28;20441;-85
2023/05/08 02:41:42;;;;;;;5.97;4.00;;;14.30;99.90;;;;;;5075315;28;20442;-86
2023/05/08 02:44:09;;;;;;;9.40;5.00;;;14.30;99.90;;;;;;5074397;28;20472;-86
2023/05/08 02:46:44;;;;;;;10.40;4.50;;;14.20;99.90;;;;;;5074415;28;20484;-86
2023/05/08 02:49:21;;;;;;;6.70;4.03;;;14.30;99.90;;;;;;5074383;28;20435;-86
2023/05/08 02:51:57;;;;;;;9.70;4.10;;;14.30;99.90;;;;;;5073945;28;20472;-86
2023/05/08 02:54:32;;;;;;;8.67;4.73;;;14.30;99.90;;;;;;5074097;28;20421;-85
2023/05/08 02:57:04;;;;;;;5.23;3.70;;;14.30;99.90;;;;;;5074353;28;20468;-86
2023/05/08 02:59:38;;;;;;;5.27;3.50;;;14.30;99.90;;;;;;5074622;28;20430;-86
2023/05/08 03:02:10;;;;;;;12.83;3.63;;;14.30;99.90;;;;;;5073838;28;20509;-86
2023/05/08 03:04:45;;;;;;;9.13;4.93;;;14.30;99.90;;;;;;5074040;28;20430;-86
2023/05/08 03:07:13;;;;;;;6.20;3.60;;;14.30;99.90;;;;;;5074647;28;20972;-86
2023/05/08 03:09:45;;;;;;;7.43;4.03;;;14.20;99.90;;;;;;5077366;28;20449;-86
2023/05/08 03:12:16;;;;;;;4.93;3.10;;;14.30;99.90;;;;;;5074213;28;20485;-86
2023/05/08 03:14:46;;;;;;;4.37;3.20;;;14.30;99.90;;;;;;5073619;28;20968;-86
2023/05/08 03:17:16;;;;;;;7.50;4.67;;;14.30;99.90;;;;;;5073587;28;20923;-86
2023/05/08 03:19:46;;;;;;;4.97;4.47;;;14.30;99.90;;;;;;5073847;28;20449;-86
2023/05/08 03:22:16;;;;;;;8.57;4.37;;;14.20;99.90;;;;;;5073777;28;20465;-86
2023/05/08 03:24:46;;;;;;;8.00;3.97;;;14.20;99.90;;;;;;5073745;28;20448;-86
2023/05/08 03:27:15;;;;;;;12.93;5.63;;;14.20;99.90;;;;;;5073436;28;20458;-86
2023/05/08 03:29:45;;;;;;;7.63;4.13;;;14.20;99.90;;;;;;5074587;28;20448;-86
2023/05/08 03:32:13;;;;;;;10.63;5.00;;;14.20;99.90;;;;;;5073749;28;20842;-86
2023/05/08 03:34:41;;;;;;;6.83;3.80;;;14.30;99.90;;;;;;5073787;28;20452;-86
2023/05/08 03:37:08;;;;;;;9.53;5.20;;;14.20;99.90;;;;;;5073632;28;20458;-86
2023/05/08 03:39:35;;;;;;;9.00;5.07;;;14.20;99.90;;;;;;5073447;28;20460;-86
2023/05/08 03:42:03;;;;;;;8.97;3.60;;;14.20;99.90;;;;;;5073784;28;20511;-86
2023/05/08 03:44:30;;;;;;;7.93;4.03;;;14.30;99.90;;;;;;5073683;28;20453;-86
2023/05/08 03:46:58;;;;;;;13.30;5.10;;;14.30;99.90;;;;;;5073246;28;20477;-86
2023/05/08 03:49:26;;;;;;;7.03;4.27;;;14.20;99.90;;;;;;5073646;28;20852;-86
2023/05/08 03:51:54;;;;;;;6.93;4.03;;;14.30;99.90;;;;;;5075609;28;20497;-86
2023/05/08 03:54:24;;;;;;;7.10;5.00;;;14.30;99.90;;;;;;5074696;28;20437;-86
2023/05/08 03:56:51;;;;;;;7.20;3.50;;;14.30;99.90;;;;;;5073895;28;20467;-86
2023/05/08 03:59:27;;;;;;;7.47;3.90;;;14.30;99.90;;;;;;5073484;28;20453;-86
2023/05/08 04:01:59;;;;;;;9.87;5.90;;;14.30;99.90;;;;;;5073086;28;21001;-86
2023/05/08 04:04:38;;;;;;;10.50;3.50;;;14.30;99.90;;;;;;5073486;28;20437;-86
2023/05/08 04:07:10;;;;;;;9.13;4.40;;;14.30;99.90;;;;;;5073293;28;20469;-86
2023/05/08 04:09:43;;;;;;;13.00;5.20;;;14.20;99.90;;;;;;5073426;28;20430;-87
2023/05/08 04:12:15;;;;;;;8.20;4.13;;;14.20;99.90;;;;;;5076030;28;20487;-86
2023/05/08 04:14:49;;;;;;;8.93;3.87;;;14.30;99.90;;;;;;5077157;28;20434;-85
2023/05/08 04:17:23;;;;;;;6.20;3.80;;;14.30;99.90;;;;;;5077288;28;20819;-86
2023/05/08 04:19:55;;;;;;;8.90;4.17;;;14.30;99.90;;;;;;5077395;28;20437;-86
2023/05/08 04:22:25;;;;;;;10.70;5.20;;;14.30;99.90;;;;;;5077028;28;20983;-86
2023/05/08 04:24:55;;;;;;;7.90;3.33;;;14.30;99.90;;;;;;5076788;28;20837;-86
2023/05/08 04:27:22;;;;;;;6.43;3.77;;;14.30;99.90;;;;;;5077079;28;20477;-86
2023/05/08 04:29:50;;;;;;;8.93;4.20;;;14.30;99.90;;;;;;5077098;28;20460;-86
2023/05/08 04:32:17;;;;;;;7.90;3.90;;;14.30;99.90;;;;;;5076974;28;20472;-86
2023/05/08 04:34:44;;;;;;;8.07;5.07;;;14.40;99.90;;;;;;5076741;28;20940;-86
2023/05/08 04:37:25;;;;;;;9.17;4.63;;;14.40;99.90;;;;;;5076904;28;20449;-86
2023/05/08 04:39:52;;;;;;;8.73;4.27;;;14.40;99.90;;;;;;5077145;28;20486;-86
2023/05/08 04:42:20;;;;;;;6.60;3.53;;;14.40;99.90;;;;;;5076913;28;20469;-86
2023/05/08 04:44:47;;;;;;;7.70;4.67;;;14.40;99.90;;;;;;5076937;28;20532;-85
2023/05/08 04:47:15;;;;;;;11.90;4.70;;;14.50;99.90;;;;;;5076674;28;20849;-85
2023/05/08 04:49:42;;;;;;;6.93;3.80;;;14.40;99.90;;;;;;5076754;28;20453;-83
2023/05/08 04:52:09;;;;;;;6.60;3.87;;;14.40;99.90;;;;;;5076487;28;20465;-86
2023/05/08 04:54:35;;;;;;;12.30;4.50;;;14.40;99.90;;;;;;5076590;28;20456;-85
2023/05/08 04:57:02;;;;;;;3.13;2.50;;;14.40;99.90;;;;;;5076463;28;20444;-85
2023/05/08 04:59:29;;;;;;;6.20;3.60;;;14.40;99.90;;;;;;5076597;28;20549;-85
2023/05/08 05:01:56;;;;;;;11.80;4.97;;;14.40;99.90;;;;;;5075916;28;20481;-85
2023/05/08 05:04:24;;;;;;;9.00;3.90;;;14.40;99.90;;;;;;5076382;28;20461;-85
2023/05/08 05:06:51;;;;;;;9.80;4.07;;;14.40;99.90;;;;;;5076257;28;20488;-85
2023/05/08 05:09:18;;;;;;;9.10;4.60;;;14.50;99.90;;;;;;5076334;28;20447;-85
2023/05/08 05:11:45;;;;;;;9.40;4.60;;;14.50;99.90;;;;;;5076215;28;20474;-85
2023/05/08 05:14:11;;;;;;;12.20;4.67;;;14.50;99.90;;;;;;5076209;28;20445;-85
2023/05/08 05:16:38;;;;;;;9.43;5.43;;;14.50;99.90;;;;;;5076392;28;20437;-85
2023/05/08 05:19:05;;;;;;;10.23;5.57;;;14.50;99.90;;;;;;5075939;28;20800;-85
2023/05/08 05:21:33;;;;;;;5.70;4.33;;;14.50;99.90;;;;;;5075174;28;20933;-85
2023/05/08 05:23:59;;;;;;;8.43;4.13;;;14.50;99.90;;;;;;5075973;28;20446;-85
2023/05/08 05:26:26;;;;;;;15.60;5.50;;;14.50;99.90;;;;;;5075836;28;20490;-85
2023/05/08 05:28:53;;;;;;;11.83;4.13;;;14.50;99.90;;;;;;5075915;28;20453;-85
2023/05/08 05:31:20;;;;;;;11.90;5.30;;;14.50;99.90;;;;;;5075849;28;20453;-85
2023/05/08 05:33:46;;;;;;;9.83;4.80;;;14.60;99.90;;;;;;5075916;28;20465;-85
2023/05/08 05:36:13;;;;;;;12.03;5.90;;;14.60;99.90;;;;;;5075845;28;20794;-85
2023/05/08 05:38:41;;;;;;;10.83;4.97;;;14.60;99.90;;;;;;5075790;28;20456;-85
2023/05/08 05:41:08;;;;;;;8.90;5.37;;;14.70;99.90;;;;;;5075839;28;20445;-84
2023/05/08 05:43:34;;;;;;;10.83;5.47;;;14.70;99.90;;;;;;5075747;28;20488;-85
2023/05/08 05:46:04;;;;;;;10.93;5.43;;;14.70;99.90;;;;;;5075600;28;20477;-85
2023/05/08 05:48:31;;;;;;;14.37;6.40;;;14.70;99.90;;;;;;5076344;28;20477;-85
2023/05/08 05:50:58;;;;;;;10.10;5.00;;;14.70;99.90;;;;;;5075467;28;20441;-85
2023/05/08 05:53:24;;;;;;;11.07;6.10;;;14.80;99.90;;;;;;5075277;28;20810;-85
2023/05/08 05:55:53;;;;;;;16.80;4.97;;;14.70;99.90;;;;;;5075462;28;20449;-84
2023/05/08 05:58:20;;;;;;;7.37;3.93;;;14.70;99.90;;;;;;5075493;28;20473;-85
2023/05/08 06:00:47;;;;;;;11.40;4.63;;;14.70;99.90;;;;;;5075435;28;20457;-85
2023/05/08 06:03:14;;;;;;;7.90;4.57;;;14.70;99.90;;;;;;5074686;28;20512;-85
2023/05/08 06:05:41;;;;;;;11.27;6.43;;;14.70;99.90;;;;;;5076688;28;20465;-84
2023/05/08 06:08:08;;;;;;;11.60;5.27;;;14.70;99.90;;;;;;5075329;28;20614;-84
2023/05/08 06:10:35;;;;;;;9.53;4.33;;;14.70;99.90;;;;;;5074725;28;20996;-85
2023/05/08 06:13:03;;;;;;;12.07;4.60;;;14.70;99.90;;;;;;5075062;28;20465;-85
2023/05/08 06:15:30;;;;;;;9.90;4.73;;;14.70;99.90;;;;;;5074991;28;20449;-84
2023/05/08 06:17:57;;;;;;;8.77;3.87;;;14.70;99.90;;;;;;5075007;28;20456;-85
2023/05/08 06:20:23;;;;;;;7.30;4.57;;;14.70;99.90;;;;;;5074905;28;20457;-84
2023/05/08 06:22:50;;;;;;;7.23;3.73;;;14.60;99.90;;;;;;5074802;28;20458;-85
2023/05/08 06:25:18;;;;;;;7.97;3.73;;;14.70;99.90;;;;;;5075103;28;20482;-84
2023/05/08 06:27:45;;;;;;;7.67;4.20;;;14.60;99.90;;;;;;5074711;28;20465;-85
2023/05/08 06:30:13;;;;;;;8.60;5.00;;;14.70;99.90;;;;;;5074840;28;20448;-85
2023/05/08 06:32:40;;;;;;;10.10;4.90;;;14.70;99.90;;;;;;5074578;28;20469;-85
2023/05/08 06:35:07;;;;;;;9.43;5.30;;;14.70;99.90;;;;;;5074118;28;20446;-85
2023/05/08 06:37:34;;;;;;;7.80;4.20;;;14.70;99.90;;;;;;5075090;28;20437;-84
2023/05/08 06:40:01;;;;;;;5.43;3.90;;;14.80;99.90;;;;;;5074482;28;20459;-84
2023/05/08 06:42:28;;;;;;;10.93;4.50;;;14.80;99.90;;;;;;5074132;28;20985;-84
2023/05/08 06:44:54;;;;;;;10.90;4.07;;;14.80;99.90;;;;;;5074398;28;20453;-85
2023/05/08 06:47:22;;;;;;;7.83;3.83;;;14.80;99.90;;;;;;5073933;28;21037;-85
2023/05/08 06:49:49;;;;;;;8.33;4.60;;;14.80;99.90;;;;;;5074353;28;20441;-85
2023/05/08 06:52:16;;;;;;;8.97;5.23;;;14.80;99.90;;;;;;5074297;28;20461;-84
2023/05/08 06:54:42;;;;;;;14.03;5.40;;;14.80;99.90;;;;;;5074290;28;20458;-84
2023/05/08 06:57:10;;;;;;;10.70;4.80;;;14.80;99.90;;;;;;5074243;28;20442;-85
2023/05/08 06:59:37;;;;;;;10.70;4.83;;;14.80;99.90;;;;;;5074121;28;20502;-85
2023/05/08 07:02:03;;;;;;;14.00;5.60;;;14.80;99.90;;;;;;5073744;28;20486;-84
2023/05/08 07:04:31;;;;;;;13.20;5.00;;;14.80;99.90;;;;;;5073811;28;20937;-85
2023/05/08 07:06:59;;;;;;;13.17;4.07;;;14.70;99.90;;;;;;5073896;28;20481;-84
2023/05/08 07:09:26;;;;;;;8.77;4.60;;;14.70;99.90;;;;;;5073963;28;20456;-84
2023/05/08 07:11:52;;;;;;;11.73;6.53;;;14.70;99.90;;;;;;5073636;28;20480;-85
2023/05/08 07:14:19;;;;;;;11.77;4.93;;;14.70;99.90;;;;;;5073894;28;20445;-85
2023/05/08 07:16:46;;;;;;;9.73;5.07;;;14.70;99.90;;;;;;5073878;28;20528;-85
2023/05/08 07:19:12;;;;;;;9.93;4.10;;;14.80;99.90;;;;;;5073701;28;20461;-85
2023/05/08 07:21:40;;;;;;;8.70;5.47;;;14.80;99.90;;;;;;5073841;28;20449;-85
2023/05/08 07:24:08;;;;;;;9.10;3.43;;;14.80;99.90;;;;;;5073553;28;20937;-85
2023/05/08 07:26:34;;;;;;;9.87;5.47;;;14.80;99.90;;;;;;5073759;28;20520;-85
2023/05/08 07:29:01;;;;;;;7.60;4.43;;;14.90;99.90;;;;;;5073453;28;20438;-85
2023/05/08 07:31:28;;;;;;;9.83;4.00;;;15.00;99.90;;;;;;5073587;28;20446;-85
2023/05/08 07:33:55;;;;;;;8.10;5.53;;;15.10;99.90;;;;;;5073690;28;20452;-85
2023/05/08 07:36:21;;;;;;;11.83;5.20;;;15.30;99.90;;;;;;5074007;28;20457;-85
2023/05/08 07:38:49;;;;;;;9.87;4.93;;;15.40;99.90;;;;;;5073667;28;20446;-85
2023/05/08 07:41:16;;;;;;;8.80;4.57;;;15.60;99.90;;;;;;5073726;28;20445;-85
2023/05/08 07:43:44;;;;;;;7.00;4.27;;;15.70;99.90;;;;;;5073652;28;20473;-85
2023/05/08 07:46:16;;;;;;;11.27;4.47;;;15.80;99.90;;;;;;5073085;28;20507;-84
2023/05/08 07:48:43;;;;;;;12.47;5.30;;;16.10;99.90;;;;;;5073514;28;20430;-84
2023/05/08 07:51:10;;;;;;;12.80;4.37;;;16.30;99.90;;;;;;5073607;28;20484;-85
2023/05/08 07:53:37;;;;;;;9.27;5.20;;;16.50;99.90;;;;;;5073389;28;20894;-85
2023/05/08 07:56:06;;;;;;;8.87;4.60;;;16.70;99.90;;;;;;5073536;28;20464;-85
2023/05/08 07:58:33;;;;;;;8.63;4.83;;;16.90;99.90;;;;;;5073277;28;20445;-85
2023/05/08 08:01:00;;;;;;;11.07;4.30;;;17.10;99.90;;;;;;5073227;28;20433;-85
2023/05/08 08:03:27;;;;;;;10.70;5.53;;;17.10;99.90;;;;;;5073666;28;20560;-85
2023/05/08 08:05:54;;;;;;;7.93;4.13;;;17.10;99.90;;;;;;5073402;28;20481;-86
2023/05/08 08:08:22;;;;;;;9.03;4.20;;;17.20;99.90;;;;;;5073156;28;20512;-85
2023/05/08 08:10:50;;;;;;;6.27;3.50;;;17.10;99.90;;;;;;5069608;28;20840;-85
2023/05/08 08:13:18;;;;;;;5.73;4.13;;;17.10;99.90;;;;;;5055944;28;20465;-86
2023/05/08 08:15:44;;;;;;;5.93;3.37;;;17.00;99.90;;;;;;5071918;28;20452;-86
2023/05/08 08:18:11;;;;;;;6.57;3.87;;;17.00;99.90;;;;;;5072929;28;20434;-85
2023/05/08 08:20:38;;;;;;;4.83;2.93;;;17.00;99.90;;;;;;5071693;28;20449;-84
2023/05/08 08:23:05;;;;;;;5.40;3.17;;;16.90;99.90;;;;;;5073013;28;20469;-85
2023/05/08 08:25:32;;;;;;;5.77;3.33;;;16.90;99.90;;;;;;5073253;28;20477;-86
2023/05/08 08:27:59;;;;;;;5.90;3.30;;;16.80;99.90;;;;;;5073096;28;20543;-86
2023/05/08 08:30:27;;;;;;;4.50;3.20;;;16.70;99.90;;;;;;5073177;28;20523;-87
2023/05/08 08:32:54;;;;;;;4.93;2.63;;;16.60;99.90;;;;;;5059112;28;20462;-86
2023/05/08 08:35:25;;;;;;;4.77;3.00;;;16.60;99.90;;;;;;5052935;28;20465;-86
2023/05/08 08:37:52;;;;;;;3.70;2.83;;;16.50;99.90;;;;;;5052967;28;20445;-86
2023/05/08 08:40:18;;;;;;;4.50;2.40;;;16.50;99.90;;;;;;5053045;28;20791;-86
2023/05/08 08:42:46;;;;;;;5.43;3.67;;;16.50;99.90;;;;;;5053125;28;20471;-86
2023/05/08 08:45:12;;;;;;;5.90;3.40;;;16.50;99.90;;;;;;5053054;28;20545;-86
2023/05/08 08:47:45;;;;;;;3.03;2.60;;;16.40;99.90;;;;;;5053505;28;20843;-86
2023/05/08 08:50:14;;;;;;;7.50;2.90;;;16.40;99.90;;;;;;5053071;28;20431;-87
2023/05/08 08:52:47;;;;;;;5.97;3.70;;;16.20;99.90;;;;;;5052864;28;20474;-87
2023/05/08 08:55:16;;;;;;;6.20;3.10;;;16.20;99.90;;;;;;5053071;28;20435;-87
2023/05/08 08:57:52;;;;;;;5.10;2.80;;;16.00;99.90;;;;;;5054341;28;20482;-86
2023/05/08 09:00:20;;;;;;;5.77;3.57;;;15.90;99.90;;;;;;5056694;28;20450;-88
2023/05/08 09:02:49;;;;;;;3.90;2.87;;;15.70;99.90;;;;;;5056192;28;20493;-87
2023/05/08 09:05:16;;;;;;;6.23;3.13;;;15.50;99.90;;;;;;5056447;28;20450;-86
2023/05/08 09:07:43;;;;;;;4.70;3.87;;;15.40;99.90;;;;;;5056153;28;20486;-86
2023/05/08 09:10:14;;;;;;;5.63;3.03;;;15.40;99.90;;;;;;5056486;28;20454;-87
2023/05/08 09:12:41;;;;;;;7.83;4.10;;;15.40;99.90;;;;;;5056356;28;20470;-88
2023/05/08 09:15:08;;;;;;;5.47;3.50;;;15.40;99.90;;;;;;5056343;28;20450;-87
2023/05/08 09:17:35;;;;;;;4.17;3.37;;;15.40;99.90;;;;;;5056804;28;20446;-88
2023/05/08 09:20:03;;;;;;;8.83;5.30;;;15.40;99.90;;;;;;5056534;28;20480;-87
2023/05/08 09:22:31;;;;;;;5.50;3.70;;;15.40;99.90;;;;;;5056301;28;20978;-87
2023/05/08 09:24:59;;;;;;;6.50;3.40;;;15.50;99.90;;;;;;5056233;28;20453;-86
2023/05/08 09:27:27;;;;;;;6.57;3.93;;;15.50;99.90;;;;;;5056284;28;20489;-87
2023/05/08 09:30:02;;;;;;;5.83;3.57;;;15.60;99.90;;;;;;5056885;28;20450;-87
2023/05/08 09:32:29;;;;;;;4.37;3.20;;;15.60;99.90;;;;;;5056131;28;20470;-87
2023/05/08 09:34:57;;;;;;;5.77;3.10;;;15.60;99.90;;;;;;5056793;28;20450;-87
2023/05/08 09:37:26;;;;;;;6.57;2.67;;;15.70;99.90;;;;;;5055945;28;20427;-87
2023/05/08 09:39:53;;;;;;;3.33;2.57;;;15.70;99.90;;;;;;5055849;28;20857;-87
2023/05/08 09:42:22;;;;;;;3.90;2.70;;;15.60;99.90;;;;;;5055988;28;20489;-88
2023/05/08 09:44:50;;;;;;;5.67;3.30;;;15.60;99.90;;;;;;5055616;28;20980;-87
2023/05/08 09:47:19;;;;;;;4.47;3.20;;;15.60;99.90;;;;;;5056231;28;20482;-88
2023/05/08 09:49:58;;;;;;;4.93;3.23;;;15.60;99.90;;;;;;5056514;28;20454;-86
2023/05/08 09:52:27;;;;;;;3.20;2.30;;;15.60;99.90;;;;;;5055659;28;20849;-87
2023/05/08 09:54:58;;;;;;;2.53;2.33;;;15.50;99.90;;;;;;5055705;28;20939;-87
2023/05/08 09:57:25;;;;;;;4.33;2.00;;;15.40;99.90;;;;;;5055539;28;20648;-87
2023/05/08 09:59:59;;;;;;;4.97;2.37;;;15.40;99.90;;;;;;5055544;28;20447;-87
2023/05/08 10:02:26;;;;;;;2.10;1.90;;;15.30;99.90;;;;;;5055033;28;20834;-86
2023/05/08 10:04:53;;;;;;;4.17;2.73;;;15.30;99.90;;;;;;5055031;28;20439;-86
2023/05/08 10:07:29;;;;;;;2.30;1.80;;;15.20;99.90;;;;;;5055118;28;20457;-86
2023/05/08 10:10:01;;;;;;;2.13;1.67;;;15.00;99.90;;;;;;5053913;28;20466;-85
2023/05/08 10:12:29;;;;;;;2.67;1.60;;;14.90;99.90;;;;;;5054890;28;20467;-85
2023/05/08 10:14:56;;;;;;;2.43;1.63;;;14.90;99.90;;;;;;5055156;28;20482;-85
2023/05/08 10:17:27;;;;;;;5.60;1.80;;;14.90;99.90;;;;;;5054971;28;20454;-85
2023/05/08 10:19:59;;;;;;;2.30;2.10;;;14.80;99.90;;;;;;5054877;28;20442;-85
2023/05/08 10:22:29;;;;;;;5.50;2.33;;;14.80;99.90;;;;;;5054829;28;20521;-85
2023/05/08 10:24:58;;;;;;;2.37;1.77;;;14.80;99.90;;;;;;5055297;28;20458;-85
2023/05/08 10:27:35;;;;;;;2.40;1.43;;;14.80;99.90;;;;;;5055242;28;20478;-85
2023/05/08 10:30:03;;;;;;;1.83;1.07;;;14.80;99.90;;;;;;5054411;28;20902;-85
2023/05/08 10:32:39;;;;;;;2.33;2.13;;;14.80;99.90;;;;;;5054432;28;20497;-85
2023/05/08 10:35:09;;;;;;;2.33;1.60;;;14.80;99.90;;;;;;5054599;28;20528;-85
2023/05/08 10:37:38;;;;;;;3.90;1.80;;;14.80;99.90;;;;;;5054184;28;20806;-84
2023/05/08 10:40:06;;;;;;;2.30;1.67;;;14.80;99.90;;;;;;5054466;28;20447;-84
2023/05/08 10:42:34;;;;;;;4.07;2.17;;;14.90;99.90;;;;;;5054632;28;20463;-84
2023/05/08 10:45:02;;;;;;;1.97;1.67;;;14.80;99.90;;;;;;5054063;28;20832;-84
2023/05/08 10:47:40;;;;;;;3.23;1.63;;;14.90;99.90;;;;;;5054333;28;20442;-84
2023/05/08 10:50:21;;;;;;;2.33;2.10;;;15.00;99.90;;;;;;5054345;28;20544;-84
2023/05/08 10:52:53;;;;;;;1.97;1.63;;;15.00;99.90;;;;;;5054188;28;20473;-84
2023/05/08 10:55:23;;;;;;;1.30;1.10;;;15.00;99.90;;;;;;5054398;28;20439;-85
2023/05/08 10:58:09;;;;;;;2.53;1.10;;;15.10;99.90;;;;;;5054171;28;20469;-85
2023/05/08 11:01:13;;;;;;;3.00;1.80;;;15.10;99.90;;;;;;5054207;28;20445;-85
2023/05/08 11:03:42;;;;;;;2.40;2.00;;;15.10;99.90;;;;;;5053945;28;20474;-85
2023/05/08 11:06:09;;;;;;;2.30;1.77;;;15.10;99.90;;;;;;5066763;28;20909;-85
2023/05/08 11:08:47;;;;;;;1.97;1.77;;;15.10;99.90;;;;;;5073838;28;20508;-85
2023/05/08 11:11:23;;;;;;;2.93;2.47;;;15.10;99.90;;;;;;5074041;28;20487;-85
2023/05/08 11:13:53;;;;;;;1.40;1.30;;;15.20;99.90;;;;;;5073900;28;20470;-84
2023/05/08 11:16:53;;;;;;;3.13;1.90;;;15.10;99.90;;;;;;5073997;28;20472;-84
2023/05/08 11:19:22;;;;;;;1.97;1.50;;;15.20;99.90;;;;;;5074814;28;20445;-84
2023/05/08 11:22:13;;;;;;;2.47;1.80;;;15.20;99.90;;;;;;5073310;28;21054;-84
2023/05/08 11:24:47;;;;;;;2.03;1.10;;;15.30;99.90;;;;;;5073817;28;20428;-84
2023/05/08 11:27:14;;;;;;;1.83;1.50;;;15.30;99.90;;;;;;5073828;28;20428;-85
2023/05/08 11:29:41;;;;;;;1.00;1.00;;;15.30;99.90;;;;;;5073589;28;20891;-85
2023/05/08 11:32:08;;;;;;;2.50;1.10;;;15.40;99.90;;;;;;5073485;28;20469;-85
2023/05/08 11:34:48;;;;;;;2.17;1.80;;;15.40;99.90;;;;;;5073352;28;20957;-85
2023/05/08 11:37:19;;;;;;;1.80;1.20;;;15.50;99.90;;;;;;5073278;28;20450;-84
2023/05/08 11:39:48;;;;;;;1.20;1.10;;;15.60;99.90;;;;;;5074435;28;20461;-85
2023/05/08 11:42:33;;;;;;;2.07;0.97;;;15.60;99.90;;;;;;5073478;28;20454;-86
2023/05/08 11:45:04;;;;;;;1.00;0.87;;;15.70;99.90;;;;;;5073778;28;20512;-85
2023/05/08 11:47:36;;;;;;;1.07;0.90;;;15.70;99.90;;;;;;5073526;28;20454;-85
2023/05/08 11:50:04;;;;;;;1.73;1.63;;;15.70;99.90;;;;;;5073743;28;20425;-84
2023/05/08 11:52:32;;;;;;;1.93;1.40;;;15.70;99.90;;;;;;5073351;28;20474;-85
2023/05/08 11:55:04;;;;;;;1.07;1.03;;;15.80;99.90;;;;;;5073379;28;20441;-85
2023/05/08 11:57:32;;;;;;;2.37;1.23;;;15.90;99.90;;;;;;5073506;28;20440;-85
2023/05/08 12:00:03;;;;;;;1.67;1.43;;;16.00;99.90;;;;;;5073305;28;20454;-85
2023/05/08 12:02:37;;;;;;;1.53;1.43;;;16.10;99.90;;;;;;5072820;28;20520;-84
2023/05/08 12:05:04;;;;;;;1.90;1.17;;;16.20;99.90;;;;;;5073361;28;20437;-89
2023/05/08 12:07:31;;;;;;;1.50;1.10;;;16.30;99.90;;;;;;5073749;28;20442;-89
2023/05/08 12:10:00;;;;;;;1.90;1.10;;;16.40;99.90;;;;;;5073882;28;20482;-88
2023/05/08 12:12:37;;;;;;;1.70;1.00;;;16.50;99.90;;;;;;5073591;28;20480;-90
2023/05/08 12:15:08;;;;;;;2.13;1.17;;;16.60;99.90;;;;;;5073997;28;20441;-87
2023/05/08 12:17:35;;;;;;;2.17;1.33;;;16.50;99.90;;;;;;5073605;28;20445;-89
2023/05/08 12:20:12;;;;;;;2.43;1.27;;;16.60;99.90;;;;;;5073716;28;20438;-89
2023/05/08 12:22:40;;;;;;;2.97;1.33;;;16.80;99.90;;;;;;5073328;28;20518;-89
2023/05/08 12:25:08;;;;;;;2.90;1.60;;;16.80;99.90;;;;;;5073308;28;20544;-88
2023/05/08 12:27:37;;;;;;;1.43;0.93;;;16.70;99.90;;;;;;5073210;28;20510;-87
2023/05/08 12:30:09;;;;;;;2.53;1.67;;;16.70;99.90;;;;;;5073321;28;20481;-87
2023/05/08 12:32:37;;;;;;;2.67;1.40;;;16.80;99.90;;;;;;5075035;28;20484;-87
2023/05/08 12:35:05;;;;;;;1.53;1.23;;;16.70;99.90;;;;;;5077265;28;20457;-88
2023/05/08 12:37:32;;;;;;;4.10;1.53;;;16.60;99.90;;;;;;5077032;28;20984;-88
2023/05/08 12:39:59;;;;;;;6.73;1.97;;;16.70;99.90;;;;;;5077515;28;20445;-88
2023/05/08 12:42:42;;;;;;;1.90;1.63;;;16.70;99.90;;;;;;5077083;28;20480;-88
2023/05/08 12:45:16;;;;;;;2.97;2.37;;;16.60;99.90;;;;;;5077248;28;20906;-90
2023/05/08 12:47:46;;;;;;;1.93;1.40;;;16.70;99.90;;;;;;5078140;28;20438;-89
2023/05/08 12:50:15;;;;;;;2.60;2.40;;;16.70;99.90;;;;;;5076893;28;20480;-90
2023/05/08 12:52:42;;;;;;;3.63;2.27;;;16.70;99.90;;;;;;5077442;28;20465;-89
2023/05/08 12:55:21;;;;;;;3.40;1.97;;;16.80;99.90;;;;;;5077509;28;20434;-91
2023/05/08 12:57:50;;;;;;;2.57;2.20;;;16.90;99.90;;;;;;5077493;28;20922;-90